createdAt,value
2018-02-17T12:13:21.946Z,2.08
2018-02-17T12:16:23.828Z,2.17
2018-02-17T12:19:25.704Z,1.63
2018-02-17T12:22:27.587Z,1.87
2018-02-17T12:25:29.455Z,1.80
2018-02-17T12:47:06.253Z,5.37
2018-02-17T12:50:08.200Z,5.27
2018-02-17T12:53:10.172Z,4.90
2018-02-17T12:56:12.195Z,4.70
2018-02-17T12:59:14.243Z,4.53
2018-02-17T13:02:16.173Z,4.60
2018-02-17T13:05:18.919Z,4.42
2018-02-17T13:08:20.942Z,4.63
2018-02-17T13:11:22.986Z,4.10
2018-02-17T13:14:24.955Z,4.63
2018-02-17T13:17:26.934Z,5.47
2018-02-17T13:20:28.848Z,5.57
2018-02-17T13:23:31.003Z,5.50
2018-02-17T13:26:33.032Z,5.05
2018-02-17T13:29:35.010Z,4.53
2018-02-17T13:32:36.989Z,5.10
2018-02-17T13:35:38.923Z,5.50
2018-02-17T13:38:40.995Z,5.97
2018-02-17T13:41:43.027Z,5.00
2018-02-17T13:44:45.030Z,5.00
2018-02-17T13:47:47.001Z,6.43
2018-02-17T13:50:48.952Z,6.33
2018-02-17T13:53:50.949Z,6.47
2018-02-17T13:56:52.894Z,5.33
2018-02-17T13:59:54.842Z,5.23
2018-02-17T14:02:57.358Z,6.47
2018-02-17T14:05:59.302Z,6.10
2018-02-17T14:09:01.714Z,6.93
2018-02-17T14:12:03.682Z,6.40
2018-02-17T14:15:05.687Z,6.20
2018-02-17T14:18:07.711Z,6.07
2018-02-17T14:21:09.649Z,5.67
2018-02-17T14:24:11.614Z,5.10
2018-02-17T14:27:13.690Z,4.80
2018-02-17T14:30:15.647Z,5.33
2018-02-17T14:33:17.615Z,6.07
2018-02-17T14:36:19.582Z,6.67
2018-02-17T14:39:21.564Z,6.83
2018-02-17T14:42:23.542Z,8.37
2018-02-17T14:45:25.509Z,8.00
2018-02-17T14:48:27.466Z,7.00
2018-02-17T14:51:29.557Z,5.05
2018-02-17T14:54:31.481Z,6.65
2018-02-17T14:57:33.470Z,7.87
2018-02-17T15:00:35.404Z,9.00
2018-02-17T15:03:37.400Z,10.43
2018-02-17T15:06:39.364Z,12.82
2018-02-17T15:09:41.398Z,13.18
2018-02-17T15:12:43.594Z,12.93
2018-02-17T15:15:45.535Z,13.40
2018-02-17T15:18:47.522Z,14.77
2018-02-17T15:21:49.486Z,13.57
2018-02-17T15:24:51.569Z,13.43
2018-02-17T15:27:53.627Z,14.03
2018-02-17T15:30:55.669Z,13.30
2018-02-17T15:33:57.634Z,13.73
2018-02-17T15:36:59.793Z,11.50
2018-02-17T15:40:01.842Z,12.50
2018-02-17T15:43:03.837Z,11.20
2018-02-17T15:46:05.884Z,12.17
2018-02-17T15:49:07.974Z,11.57
2018-02-17T15:52:09.985Z,11.33
2018-02-17T15:55:12.015Z,11.70
2018-02-17T15:58:13.964Z,12.43
2018-02-17T16:01:16.154Z,13.43
2018-02-17T16:04:18.190Z,17.13
2018-02-17T16:07:20.243Z,15.97
2018-02-17T16:10:22.179Z,17.43
2018-02-17T16:13:24.264Z,16.63
2018-02-17T16:16:26.203Z,17.37
2018-02-17T16:19:28.301Z,17.03
2018-02-17T16:22:30.244Z,17.33
2018-02-17T16:25:32.372Z,18.17
2018-02-17T16:28:34.397Z,17.90
2018-02-17T16:31:36.463Z,19.83
2018-02-17T16:34:38.529Z,19.17
2018-02-17T16:37:40.594Z,18.20
2018-02-17T16:40:42.548Z,18.93
2018-02-17T16:43:44.594Z,17.90
2018-02-17T16:46:46.532Z,17.47
2018-02-17T16:49:48.782Z,15.73
2018-02-17T16:52:50.724Z,17.48
2018-02-17T16:55:52.802Z,17.80
2018-02-17T16:58:54.714Z,16.20
2018-02-17T17:01:56.813Z,16.67
2018-02-17T17:04:58.823Z,15.93
2018-02-17T17:08:00.881Z,16.87
2018-02-17T17:11:02.893Z,18.40
2018-02-17T17:14:04.887Z,16.03
2018-02-17T17:17:06.851Z,17.33
2018-02-17T17:20:09.472Z,17.90
2018-02-17T17:23:11.413Z,16.87
2018-02-17T17:26:13.474Z,16.33
2018-02-17T17:29:15.522Z,18.20
2018-02-17T17:32:17.689Z,18.07
2018-02-17T17:35:19.813Z,16.62
2018-02-17T17:38:21.782Z,16.90
2018-02-17T17:41:23.833Z,15.93
2018-02-17T17:44:25.812Z,16.43
2018-02-17T17:47:27.795Z,14.23
2018-02-17T17:50:29.710Z,16.73
2018-02-17T17:53:31.784Z,17.60
2018-02-17T17:56:33.895Z,17.17
2018-02-17T17:59:35.885Z,17.43
2018-02-17T18:02:37.987Z,15.90
2018-02-17T18:05:40.022Z,14.93
2018-02-17T18:08:41.968Z,17.33
2018-02-17T18:11:44.037Z,18.73
2018-02-17T18:14:46.080Z,18.80
2018-02-17T18:17:48.050Z,21.47
2018-02-17T18:20:49.975Z,19.90
2018-02-17T18:23:52.189Z,17.70
2018-02-17T18:26:54.165Z,16.80
2018-02-17T18:29:56.186Z,19.07
2018-02-17T18:32:58.160Z,17.37
2018-02-17T18:36:00.316Z,19.43
2018-02-17T18:39:02.330Z,18.23
2018-02-17T18:42:04.497Z,17.77
2018-02-17T18:45:06.450Z,18.07
2018-02-17T18:48:08.596Z,17.30
2018-02-17T18:51:10.592Z,22.33
2018-02-17T18:54:12.699Z,19.97
2018-02-17T18:57:14.722Z,17.73
2018-02-17T19:00:16.689Z,17.70
2018-02-17T19:03:18.703Z,16.70
2018-02-17T19:06:20.662Z,16.17
2018-02-17T19:09:22.814Z,16.43
2018-02-17T19:12:24.779Z,17.77
2018-02-17T19:15:26.736Z,16.63
2018-02-17T19:18:28.802Z,17.63
2018-02-17T19:21:30.774Z,18.50
2018-02-17T19:24:32.861Z,16.47
2018-02-17T19:27:34.906Z,17.77
2018-02-17T19:30:36.879Z,18.60
2018-02-17T19:33:39.183Z,19.07
2018-02-17T19:36:41.237Z,19.30
2018-02-17T19:39:43.172Z,17.17
2018-02-17T19:42:45.140Z,16.33
2018-02-17T19:45:47.222Z,18.10
2018-02-17T19:48:49.281Z,16.97
2018-02-17T19:51:51.471Z,19.63
2018-02-17T19:54:53.412Z,22.47
2018-02-17T19:57:55.413Z,26.73
2018-02-17T20:00:57.360Z,21.70
2018-02-17T20:04:00.357Z,21.90
2018-02-17T20:07:02.366Z,22.60
2018-02-17T20:10:04.537Z,23.17
2018-02-17T20:13:06.648Z,25.13
2018-02-17T20:16:08.694Z,23.60
2018-02-17T20:19:10.696Z,24.85
2018-02-17T20:22:12.692Z,24.03
2018-02-17T20:25:14.746Z,23.30
2018-02-17T20:28:16.701Z,24.10
2018-02-17T20:31:18.775Z,21.73
2018-02-17T20:34:20.714Z,22.70
2018-02-17T20:37:22.667Z,24.40
2018-02-17T20:40:24.623Z,21.83
2018-02-17T20:43:26.741Z,24.40
2018-02-17T20:46:28.785Z,24.00
2018-02-17T20:49:30.704Z,23.90
2018-02-17T20:52:32.870Z,22.40
2018-02-17T20:55:34.899Z,23.20
2018-02-17T20:58:36.938Z,26.63
2018-02-17T21:01:39.022Z,26.57
2018-02-17T21:04:40.995Z,26.97
2018-02-17T21:07:42.968Z,27.43
2018-02-17T21:10:45.002Z,21.37
2018-02-17T21:13:47.017Z,20.27
2018-02-17T21:16:48.973Z,29.57
2018-02-17T21:19:51.032Z,27.43
2018-02-17T21:22:53.114Z,25.10
2018-02-17T21:25:55.191Z,24.93
2018-02-17T21:28:57.200Z,23.97
2018-02-17T21:31:59.231Z,24.23
2018-02-17T21:35:01.204Z,22.63
2018-02-17T21:38:03.148Z,23.07
2018-02-17T21:41:05.132Z,17.63
2018-02-17T21:44:07.062Z,19.03
2018-02-17T21:47:09.061Z,16.63
2018-02-17T21:50:11.033Z,18.55
2018-02-17T21:53:13.029Z,18.53
2018-02-17T21:56:15.056Z,18.27
2018-02-17T21:59:17.014Z,18.13
2018-02-17T22:02:19.266Z,19.10
2018-02-17T22:05:21.296Z,19.37
2018-02-17T22:08:23.219Z,18.97
2018-02-17T22:11:25.185Z,19.20
2018-02-17T22:14:27.177Z,19.30
2018-02-17T22:17:29.107Z,18.00
2018-02-17T22:20:31.042Z,19.20
2018-02-17T22:23:33.267Z,18.23
2018-02-17T22:26:35.235Z,19.40
2018-02-17T22:29:37.524Z,19.87
2018-02-17T22:32:39.691Z,18.83
2018-02-17T22:35:43.025Z,18.87
2018-02-17T22:38:45.358Z,17.20
2018-02-17T22:41:47.316Z,17.03
2018-02-17T22:44:49.250Z,17.30
2018-02-17T22:47:51.260Z,16.47
2018-02-17T22:50:53.207Z,14.90
2018-02-17T22:53:55.279Z,18.60
2018-02-17T22:56:57.267Z,16.93
2018-02-17T22:59:59.214Z,17.63
2018-02-17T23:03:01.187Z,15.83
2018-02-17T23:06:03.353Z,17.00
2018-02-17T23:09:05.322Z,15.63
2018-02-17T23:12:07.244Z,16.87
2018-02-17T23:15:09.354Z,17.07
2018-02-17T23:18:11.362Z,17.03
2018-02-17T23:21:13.417Z,17.60
2018-02-17T23:24:15.448Z,16.17
2018-02-17T23:27:17.413Z,17.20
2018-02-17T23:30:19.489Z,16.83
2018-02-17T23:33:21.452Z,16.00
2018-02-17T23:36:23.422Z,16.87
2018-02-17T23:39:25.390Z,16.47
2018-02-17T23:42:27.355Z,16.40
2018-02-17T23:45:29.344Z,16.30
2018-02-17T23:48:31.314Z,16.70
2018-02-17T23:51:33.268Z,17.10
2018-02-17T23:54:35.212Z,19.07
2018-02-17T23:57:37.199Z,20.23
